createdAt,value
2022-12-03T00:00:38.446Z,1.18
2022-12-03T00:03:05.186Z,1.10
2022-12-03T00:05:32.202Z,1.16
2022-12-03T00:07:59.016Z,1.13
2022-12-03T00:10:25.682Z,1.05
2022-12-03T00:12:52.417Z,1.22
2022-12-03T00:15:19.246Z,1.15
2022-12-03T00:17:46.030Z,1.06
2022-12-03T00:20:44.721Z,0.61
2022-12-03T00:23:12.084Z,0.64
2022-12-03T00:25:38.787Z,0.96
2022-12-03T00:28:06.007Z,0.85
2022-12-03T00:36:25.477Z,0.66
2022-12-03T00:39:50.530Z,0.62
2022-12-03T00:42:17.276Z,1.09
2022-12-03T00:44:45.183Z,1.02
2022-12-03T00:47:19.995Z,0.75
2022-12-03T00:49:52.310Z,0.96
2022-12-03T00:52:33.918Z,0.59
2022-12-03T00:55:01.221Z,0.93
2022-12-03T00:57:28.130Z,0.95
2022-12-03T00:59:58.224Z,0.75
2022-12-03T01:02:25.723Z,0.91
2022-12-03T01:04:52.678Z,0.97
2022-12-03T01:07:19.592Z,1.02
2022-12-03T01:09:46.242Z,1.03
2022-12-03T01:12:13.103Z,0.97
2022-12-03T01:14:39.839Z,1.04
2022-12-03T01:17:06.992Z,1.03
2022-12-03T01:19:35.359Z,0.95
2022-12-03T01:22:02.778Z,0.87
2022-12-03T01:24:29.483Z,0.99
2022-12-03T01:26:56.837Z,0.85
2022-12-03T01:29:23.843Z,0.91
2022-12-03T01:32:09.239Z,0.80
2022-12-03T01:34:35.928Z,0.95
2022-12-03T01:37:02.751Z,0.90
2022-12-03T01:39:29.504Z,0.91
2022-12-03T01:41:58.815Z,0.86
2022-12-03T01:44:31.697Z,0.85
2022-12-03T01:47:02.464Z,1.00
2022-12-03T01:49:41.081Z,0.95
2022-12-03T01:52:12.879Z,0.92
2022-12-03T01:54:43.280Z,0.91
2022-12-03T01:57:24.735Z,0.92
2022-12-03T01:59:52.655Z,0.84
2022-12-03T02:02:23.457Z,0.85
2022-12-03T02:04:53.269Z,0.91
2022-12-03T02:07:21.257Z,0.89
2022-12-03T02:09:48.126Z,0.83
2022-12-03T02:12:17.788Z,0.95
2022-12-03T02:14:44.536Z,0.87
2022-12-03T02:17:12.492Z,0.96
2022-12-03T02:19:39.524Z,0.89
2022-12-03T02:22:38.593Z,0.90
2022-12-03T02:25:14.336Z,0.91
2022-12-03T02:27:41.559Z,0.87
2022-12-03T02:30:08.800Z,0.88
2022-12-03T02:32:35.652Z,0.85
2022-12-03T02:35:02.304Z,0.79
2022-12-03T02:37:37.466Z,0.83
2022-12-03T02:40:09.766Z,0.87
2022-12-03T02:42:36.936Z,0.82
2022-12-03T02:45:06.779Z,0.89
2022-12-03T02:47:36.450Z,0.68
2022-12-03T02:50:03.878Z,0.74
2022-12-03T02:52:30.879Z,0.74
2022-12-03T02:54:58.408Z,0.68
2022-12-03T02:57:25.142Z,0.83
2022-12-03T02:59:52.106Z,0.81
2022-12-03T03:02:19.262Z,0.86
2022-12-03T03:04:46.322Z,0.63
2022-12-03T03:07:13.544Z,0.54
2022-12-03T03:09:40.890Z,0.75
2022-12-03T03:12:07.760Z,0.73
2022-12-03T03:14:34.868Z,0.51
2022-12-03T03:17:01.880Z,0.65
2022-12-03T03:19:28.981Z,0.73
2022-12-03T03:21:55.883Z,0.65
2022-12-03T03:24:23.545Z,0.58
2022-12-03T03:26:50.770Z,0.70
2022-12-03T03:29:17.731Z,0.62
2022-12-03T03:31:46.610Z,0.65
2022-12-03T03:34:14.620Z,0.61
2022-12-03T03:36:41.703Z,0.66
2022-12-03T03:39:09.390Z,0.66
2022-12-03T03:41:36.913Z,0.69
2022-12-03T03:44:06.663Z,0.64
2022-12-03T03:46:34.491Z,0.68
2022-12-03T03:49:03.582Z,0.60
2022-12-03T03:51:31.082Z,0.61
2022-12-03T03:53:58.031Z,0.61
2022-12-03T03:56:49.786Z,0.60
2022-12-03T03:59:32.006Z,0.60
2022-12-03T04:01:58.689Z,0.57
2022-12-03T04:04:27.639Z,0.56
2022-12-03T04:06:54.540Z,0.58
2022-12-03T04:09:21.221Z,0.61
2022-12-03T04:12:06.411Z,0.57
2022-12-03T04:14:33.105Z,0.55
2022-12-03T04:16:59.968Z,0.59
2022-12-03T04:19:26.629Z,0.67
2022-12-03T04:22:12.054Z,0.60
2022-12-03T04:24:38.726Z,0.59
2022-12-03T04:27:24.007Z,0.59
2022-12-03T04:29:50.613Z,0.58
2022-12-03T04:32:35.460Z,0.58
2022-12-03T04:35:20.645Z,0.56
2022-12-03T04:37:47.434Z,0.63
2022-12-03T04:40:33.052Z,0.65
2022-12-03T04:42:59.728Z,0.47
2022-12-03T04:45:26.598Z,0.57
2022-12-03T04:47:53.263Z,0.50
2022-12-03T04:50:19.929Z,0.52
2022-12-03T04:52:46.560Z,0.55
2022-12-03T04:55:13.200Z,0.49
2022-12-03T04:57:39.845Z,0.56
2022-12-03T05:00:07.120Z,0.49
2022-12-03T05:02:33.858Z,0.53
2022-12-03T05:05:00.539Z,0.47
2022-12-03T05:07:27.187Z,0.45
2022-12-03T05:09:54.160Z,0.35
2022-12-03T05:12:20.761Z,0.36
2022-12-03T05:14:47.423Z,0.46
2022-12-03T05:17:14.241Z,0.50
2022-12-03T05:19:59.251Z,0.37
2022-12-03T05:22:25.985Z,0.35
2022-12-03T05:24:53.064Z,0.39
2022-12-03T05:27:24.462Z,0.48
2022-12-03T05:29:51.589Z,0.54
2022-12-03T05:32:18.847Z,0.45
2022-12-03T05:34:45.507Z,0.40
2022-12-03T05:37:15.160Z,0.45
2022-12-03T05:39:41.990Z,0.19
2022-12-03T05:42:29.851Z,0.23
2022-12-03T05:44:56.903Z,0.26
2022-12-03T05:47:23.618Z,0.33
2022-12-03T05:49:50.301Z,0.25
2022-12-03T05:52:16.897Z,0.24
2022-12-03T05:54:43.535Z,0.30
2022-12-03T05:57:10.531Z,0.14
2022-12-03T05:59:37.179Z,0.28
2022-12-03T06:02:03.902Z,0.21
2022-12-03T06:04:30.630Z,0.18
2022-12-03T06:06:59.316Z,0.21
2022-12-03T06:09:25.933Z,0.25
2022-12-03T06:11:55.669Z,0.25
2022-12-03T06:14:22.372Z,0.24
2022-12-03T06:16:49.008Z,0.23
2022-12-03T06:19:15.701Z,0.11
2022-12-03T06:21:42.325Z,0.24
2022-12-03T06:24:09.041Z,0.15
2022-12-03T06:26:36.290Z,0.20
2022-12-03T06:29:02.938Z,0.16
2022-12-03T06:31:29.832Z,0.20
2022-12-03T06:33:56.650Z,0.22
2022-12-03T06:36:23.629Z,0.22
2022-12-03T06:38:50.280Z,0.25
2022-12-03T06:41:16.976Z,0.14
2022-12-03T06:43:43.610Z,0.19
2022-12-03T06:46:10.294Z,0.16
2022-12-03T06:48:37.088Z,0.08
2022-12-03T06:51:03.882Z,0.13
2022-12-03T06:53:30.505Z,0.10
2022-12-03T06:55:57.458Z,0.06
2022-12-03T06:58:24.272Z,0.15
2022-12-03T07:00:50.916Z,0.11
2022-12-03T07:03:17.736Z,0.10
2022-12-03T07:05:44.455Z,0.16
2022-12-03T07:08:11.157Z,0.15
2022-12-03T07:10:38.005Z,0.22
2022-12-03T07:13:04.635Z,0.11
2022-12-03T07:15:31.331Z,0.22
2022-12-03T07:17:58.012Z,0.12
2022-12-03T07:20:24.681Z,0.15
2022-12-03T07:22:51.306Z,0.09
2022-12-03T07:25:22.928Z,0.15
2022-12-03T07:27:50.322Z,0.07
2022-12-03T07:30:17.543Z,0.09
2022-12-03T07:32:44.298Z,0.07
2022-12-03T07:35:10.963Z,0.06
2022-12-03T07:37:37.783Z,0.11
2022-12-03T07:40:05.793Z,0.15
2022-12-03T07:42:32.483Z,0.08
2022-12-03T07:44:59.103Z,0.14
2022-12-03T07:47:26.346Z,0.07
2022-12-03T07:49:52.995Z,-0.01
2022-12-03T07:52:19.654Z,0.09
2022-12-03T07:54:46.321Z,0.02
2022-12-03T07:57:13.052Z,-0.01
2022-12-03T07:59:39.715Z,0.07
2022-12-03T08:02:06.818Z,0.12
2022-12-03T08:04:33.580Z,0.13
2022-12-03T08:07:00.207Z,0.05
2022-12-03T08:09:26.962Z,0.05
2022-12-03T08:11:54.020Z,0.01
2022-12-03T08:14:21.227Z,-0.03
2022-12-03T08:16:48.497Z,0.14
2022-12-03T08:19:17.206Z,0.14
2022-12-03T08:21:44.569Z,0.03
2022-12-03T08:24:18.535Z,-0.08
2022-12-03T08:26:48.138Z,0.09
2022-12-03T08:29:18.520Z,0.09
2022-12-03T08:31:59.301Z,-0.02
2022-12-03T11:18:38.028Z,0.29
2022-12-03T11:21:32.569Z,0.29
2022-12-03T11:23:59.240Z,0.29
2022-12-03T11:26:37.889Z,0.28
2022-12-03T11:29:13.309Z,0.28
2022-12-03T11:31:40.080Z,0.24
2022-12-03T11:34:18.679Z,0.22
2022-12-03T11:37:13.109Z,0.26
2022-12-03T11:39:52.642Z,0.31
2022-12-03T11:42:26.140Z,0.33
2022-12-03T11:45:20.239Z,0.35
2022-12-03T11:48:02.532Z,0.33
2022-12-03T11:50:39.354Z,0.03
2022-12-03T11:53:26.890Z,0.22
2022-12-03T11:56:13.099Z,0.10
2022-12-03T11:58:43.259Z,0.21
2022-12-03T12:01:17.336Z,0.19
2022-12-03T12:03:47.221Z,-0.04
2022-12-03T12:06:15.895Z,0.24
2022-12-03T12:08:57.042Z,0.24
2022-12-03T12:11:31.957Z,0.22
2022-12-03T12:14:26.376Z,0.18
2022-12-03T12:16:55.379Z,0.13
2022-12-03T12:19:42.604Z,0.17
2022-12-03T12:22:19.307Z,0.13
2022-12-03T12:25:06.564Z,0.09
2022-12-03T12:27:38.267Z,0.15
2022-12-03T12:30:14.939Z,0.05
2022-12-03T12:32:47.420Z,0.22
2022-12-03T12:35:22.871Z,0.29
2022-12-03T12:37:59.969Z,0.24
2022-12-03T12:40:32.414Z,0.27
2022-12-03T12:43:04.314Z,0.22
2022-12-03T12:45:39.159Z,0.22
2022-12-03T12:48:14.847Z,0.20
2022-12-03T12:50:43.593Z,0.14
2022-12-03T12:53:24.069Z,0.11
2022-12-03T12:56:12.095Z,0.18
2022-12-03T12:58:38.768Z,0.15
2022-12-03T13:01:11.094Z,0.04
2022-12-03T13:03:39.880Z,0.08
2022-12-03T13:06:11.492Z,0.06
2022-12-03T13:08:42.850Z,0.11
2022-12-03T13:11:26.568Z,0.01
2022-12-03T13:13:53.321Z,0.01
2022-12-03T13:16:28.159Z,0.08
2022-12-03T13:18:57.001Z,-0.04
2022-12-03T13:21:32.677Z,0.08
2022-12-03T13:24:00.477Z,-0.09
2022-12-03T13:26:39.003Z,0.07
2022-12-03T13:29:18.662Z,-0.01
2022-12-03T13:31:52.297Z,-0.09
2022-12-03T13:34:25.241Z,0.03
2022-12-03T13:36:58.051Z,0.04
2022-12-03T13:39:35.366Z,0.10
2022-12-03T13:42:26.824Z,0.14
2022-12-03T13:44:54.822Z,0.08
2022-12-03T13:47:28.537Z,-0.06
2022-12-03T13:49:58.069Z,-0.06
2022-12-03T13:52:26.243Z,0.06
2022-12-03T13:54:55.985Z,0.03
2022-12-03T17:55:10.403Z,-0.57
2022-12-03T17:57:39.686Z,-0.51
2022-12-03T18:00:07.152Z,-0.42
2022-12-03T18:02:33.858Z,-0.38
2022-12-03T18:05:00.526Z,-0.43
2022-12-03T18:07:27.276Z,-0.41
2022-12-03T18:09:54.210Z,-0.33
2022-12-03T18:12:26.528Z,-0.38
2022-12-03T18:14:53.198Z,-0.31
2022-12-03T18:17:19.860Z,-0.31
2022-12-03T18:19:46.543Z,-0.36
2022-12-03T18:22:16.485Z,-0.37
2022-12-03T18:24:46.108Z,-0.33
2022-12-03T18:27:14.265Z,-0.32
2022-12-03T18:29:40.960Z,-0.30
2022-12-03T18:32:27.252Z,-0.33
2022-12-03T18:34:55.814Z,-0.27
2022-12-03T18:37:26.112Z,-0.41
2022-12-03T18:39:53.303Z,-0.30
2022-12-03T18:42:22.352Z,-0.33
2022-12-03T18:44:53.275Z,-0.31
2022-12-03T18:47:22.627Z,-0.29
2022-12-03T18:49:49.408Z,-0.31
2022-12-03T18:52:19.264Z,-0.28
2022-12-03T18:54:46.572Z,-0.35
2022-12-03T18:57:13.568Z,-0.37
2022-12-03T18:59:40.580Z,-0.38
2022-12-03T19:02:08.328Z,-0.35
2022-12-03T19:04:35.020Z,-0.37
2022-12-03T19:07:03.529Z,-0.31
2022-12-03T19:09:30.662Z,-0.32
2022-12-03T19:11:57.355Z,-0.39
2022-12-03T19:14:23.977Z,-0.36
2022-12-03T19:16:50.857Z,-0.36
2022-12-03T19:19:18.310Z,-0.31
2022-12-03T19:21:45.006Z,-0.38
2022-12-03T19:24:27.014Z,-0.35
2022-12-03T19:26:55.543Z,-0.36
2022-12-03T19:29:23.399Z,-0.35
2022-12-03T19:31:53.423Z,-0.37
2022-12-03T19:34:20.200Z,-0.32
2022-12-03T19:36:47.649Z,-0.38
2022-12-03T19:39:14.727Z,-0.36
2022-12-03T19:41:43.675Z,-0.41
2022-12-03T19:44:14.751Z,-0.29
2022-12-03T19:46:42.001Z,-0.30
2022-12-03T19:49:09.485Z,-0.29
2022-12-03T19:51:36.740Z,-0.44
2022-12-03T19:54:08.052Z,-0.35
2022-12-03T19:56:35.077Z,-0.31
2022-12-03T19:59:02.486Z,-0.38
2022-12-03T20:01:32.160Z,-0.36
2022-12-03T20:04:01.047Z,-0.36
2022-12-03T20:07:31.466Z,-0.42
2022-12-03T20:09:32.516Z,-0.62
2022-12-03T20:11:59.386Z,-0.77
2022-12-03T20:14:26.400Z,-0.78
2022-12-03T20:16:53.143Z,-0.42
2022-12-03T20:19:42.499Z,-0.36
2022-12-03T20:22:09.369Z,-0.58
2022-12-03T20:24:36.080Z,-0.35
2022-12-03T20:27:03.063Z,-0.67
2022-12-03T20:29:29.701Z,-0.31
2022-12-03T20:31:56.511Z,-0.31
2022-12-03T20:35:03.947Z,-0.33
2022-12-03T20:37:31.375Z,-0.34
2022-12-03T20:39:58.307Z,-0.78
2022-12-03T20:42:25.288Z,-0.80
2022-12-03T20:44:53.178Z,-0.53
2022-12-03T20:47:20.377Z,-0.58
2022-12-03T20:49:47.516Z,-0.71
2022-12-03T20:52:14.231Z,-0.45
2022-12-03T20:54:41.044Z,-0.71
2022-12-03T20:57:07.899Z,-0.64
2022-12-03T20:59:43.337Z,-0.87
2022-12-03T21:02:19.230Z,-0.63
2022-12-03T21:04:46.096Z,-0.38
2022-12-03T21:07:13.226Z,-0.88
2022-12-03T21:09:40.197Z,-0.87
2022-12-03T21:12:07.264Z,-0.85
2022-12-03T21:14:34.057Z,-0.40
2022-12-03T21:17:08.353Z,-0.41
2022-12-03T21:19:38.814Z,-0.50
2022-12-03T21:22:06.171Z,-0.40
2022-12-03T21:24:33.557Z,-0.39
2022-12-03T21:27:00.265Z,-0.42
2022-12-03T21:29:26.988Z,-0.41
2022-12-03T21:31:53.939Z,-0.44
2022-12-03T21:34:20.590Z,-0.39
2022-12-03T21:36:47.356Z,-0.43
2022-12-03T21:39:17.007Z,-0.42
2022-12-03T21:42:34.800Z,-0.48
2022-12-03T21:44:30.704Z,-0.46
2022-12-03T21:47:10.204Z,-0.53
2022-12-03T21:49:40.775Z,-0.58
2022-12-03T21:52:07.562Z,-0.43
2022-12-03T21:54:34.343Z,-0.42
2022-12-03T21:57:01.055Z,-0.46
2022-12-03T21:59:30.532Z,-0.41
2022-12-03T22:01:57.284Z,-0.42
2022-12-03T22:04:26.467Z,-0.43
2022-12-03T22:06:53.184Z,-0.38
2022-12-03T22:09:26.150Z,-0.45
2022-12-03T22:11:55.538Z,-0.34
2022-12-03T22:14:22.361Z,-0.39
2022-12-03T22:16:49.098Z,-0.67
2022-12-03T22:19:15.947Z,-0.46
2022-12-03T22:21:42.821Z,-0.45
2022-12-03T22:24:09.528Z,-0.41
2022-12-03T22:26:36.208Z,-0.42
2022-12-03T22:29:02.950Z,-0.40
2022-12-03T22:31:29.578Z,-0.42
2022-12-03T22:33:56.277Z,-0.44
2022-12-03T22:36:22.932Z,-0.46
2022-12-03T22:38:51.073Z,-0.52
2022-12-03T22:41:18.590Z,-0.41
2022-12-03T22:43:46.410Z,-0.42
2022-12-03T22:46:13.917Z,-0.49
2022-12-03T22:48:42.360Z,-0.44
2022-12-03T22:51:17.658Z,-0.45
2022-12-03T22:53:44.624Z,-0.45
2022-12-03T22:56:11.936Z,-0.43
2022-12-03T22:58:40.237Z,-0.38
2022-12-03T23:01:09.477Z,-0.44
2022-12-03T23:03:36.840Z,-0.42
2022-12-03T23:06:10.957Z,-0.48
2022-12-03T23:08:38.191Z,-0.40
2022-12-03T23:11:05.244Z,-0.53
2022-12-03T23:13:32.343Z,-0.60
2022-12-03T23:15:59.340Z,-0.46
2022-12-03T23:18:26.085Z,-0.45
2022-12-03T23:20:55.829Z,-0.42
2022-12-03T23:23:25.586Z,-0.42
2022-12-03T23:26:07.844Z,-0.42
2022-12-03T23:28:36.653Z,-0.41
2022-12-03T23:31:04.310Z,-0.46
2022-12-03T23:33:37.931Z,-0.42
2022-12-03T23:36:08.713Z,-0.46
2022-12-03T23:38:35.614Z,-0.45
2022-12-03T23:41:13.631Z,-0.41
2022-12-03T23:43:44.008Z,-0.35
2022-12-03T23:46:17.888Z,-0.40
2022-12-03T23:48:45.762Z,-0.43
2022-12-03T23:51:15.720Z,-0.43
2022-12-03T23:53:43.234Z,-0.40
2022-12-03T23:56:12.849Z,-0.57
2022-12-03T23:58:39.537Z,-0.43
